Time;durP1;ratioP1;P1;durP2;ratioP2;P2;SDS_P1;SDS_P2;PMS_P1;PMS_P2;Temp;Humidity;BMP_temperature;BMP_pressure;BME280_temperature;BME280_humidity;BME280_pressure;Samples;Min_cycle;Max_cycle;Signal;HPM_P1;HPM_P2
2023/02/19 00:01:10;;;;;;;;;8.00;8.00;;;;;;;;4997078;28;46200;-55
2023/02/19 00:03:36;;;;;;;;;9.00;8.00;;;;;;;;4988243;28;45474;-55
2023/02/19 00:06:02;;;;;;;;;8.00;7.00;;;;;;;;4994186;28;45658;-55
2023/02/19 00:08:28;;;;;;;;;8.67;7.00;;;;;;;;4992845;28;45401;-55
2023/02/19 00:10:54;;;;;;;;;10.67;9.00;;;;;;;;4997134;28;45393;-56
2023/02/19 00:13:19;;;;;;;;;10.33;7.33;;;;;;;;4997161;28;45392;-56
2023/02/19 00:15:44;;;;;;;;;9.33;8.00;;;;;;;;4997641;28;45360;-55
2023/02/19 00:18:09;;;;;;;;;8.67;8.67;;;;;;;;4997811;28;45705;-55
2023/02/19 00:20:34;;;;;;;;;8.67;8.33;;;;;;;;4998011;28;45407;-56
2023/02/19 00:22:59;;;;;;;;;7.00;7.00;;;;;;;;4996978;28;45555;-56
2023/02/19 00:25:25;;;;;;;;;8.33;8.33;;;;;;;;4997970;28;45277;-55
2023/02/19 00:27:50;;;;;;;;;9.33;9.33;;;;;;;;4997068;28;45202;-55
2023/02/19 00:30:15;;;;;;;;;9.33;8.00;;;;;;;;4998033;28;45502;-55
2023/02/19 00:32:40;;;;;;;;;9.33;8.67;;;;;;;;4996998;28;45458;-56
2023/02/19 00:35:06;;;;;;;;;10.00;9.00;;;;;;;;4997554;28;45380;-56
2023/02/19 00:37:31;;;;;;;;;10.00;9.00;;;;;;;;4993209;28;45996;-56
2023/02/19 00:39:56;;;;;;;;;9.00;8.00;;;;;;;;4993081;28;46542;-56
2023/02/19 00:42:21;;;;;;;;;10.00;8.33;;;;;;;;4997315;28;45356;-56
2023/02/19 00:44:46;;;;;;;;;9.67;8.67;;;;;;;;4997235;28;45293;-56
2023/02/19 00:47:12;;;;;;;;;10.67;9.00;;;;;;;;4997201;28;45539;-56
2023/02/19 00:49:37;;;;;;;;;7.00;7.00;;;;;;;;4997329;28;46395;-56
2023/02/19 00:52:02;;;;;;;;;8.00;8.00;;;;;;;;4994215;28;45429;-56
2023/02/19 00:54:27;;;;;;;;;8.00;8.00;;;;;;;;4997249;28;45368;-55
2023/02/19 00:56:53;;;;;;;;;8.67;8.67;;;;;;;;4995908;28;46433;-56
2023/02/19 00:59:18;;;;;;;;;8.00;8.00;;;;;;;;4993089;28;45558;-55
2023/02/19 01:01:45;;;;;;;;;10.00;10.00;;;;;;;;4997358;28;45589;-56
2023/02/19 01:04:10;;;;;;;;;11.00;9.00;;;;;;;;4996551;28;45466;-57
2023/02/19 01:06:35;;;;;;;;;12.00;11.00;;;;;;;;5000276;28;45443;-55
2023/02/19 01:09:01;;;;;;;;;11.67;10.00;;;;;;;;5000067;28;46325;-55
2023/02/19 01:11:26;;;;;;;;;10.00;10.00;;;;;;;;5000020;28;45705;-56
2023/02/19 01:13:52;;;;;;;;;11.33;9.00;;;;;;;;5000273;28;45521;-56
2023/02/19 01:16:19;;;;;;;;;7.00;7.00;;;;;;;;4999616;28;45365;-55
2023/02/19 01:18:44;;;;;;;;;9.00;8.00;;;;;;;;4995809;28;46543;-56
2023/02/19 01:21:28;;;;;;;;;7.67;7.00;;;;;;;;5000441;28;45388;-56
2023/02/19 01:23:54;;;;;;;;;5.33;5.33;;;;;;;;4999030;28;45613;-56
2023/02/19 01:26:21;;;;;;;;;7.33;6.33;;;;;;;;5000516;28;45499;-56
2023/02/19 01:28:47;;;;;;;;;6.33;6.33;;;;;;;;4999152;28;45452;-56
2023/02/19 05:32:53;;;;;;;;;2.00;1.67;;;;;;;;4959754;28;46741;-53
2023/02/19 05:35:18;;;;;;;;;1.00;1.00;;;;;;;;4960974;28;45676;-52
2023/02/19 05:37:43;;;;;;;;;0.00;0.00;;;;;;;;4960550;28;45422;-50
2023/02/19 05:40:08;;;;;;;;;0.00;0.00;;;;;;;;4961259;28;45342;-52
2023/02/19 05:42:34;;;;;;;;;1.00;1.00;;;;;;;;4960763;28;45306;-49
2023/02/19 05:44:59;;;;;;;;;1.00;0.00;;;;;;;;4959891;28;45499;-51
2023/02/19 05:47:24;;;;;;;;;4.00;0.33;;;;;;;;4959577;28;46725;-51
2023/02/19 05:49:49;;;;;;;;;0.00;0.00;;;;;;;;4960361;28;45800;-51
2023/02/19 05:52:14;;;;;;;;;0.00;0.00;;;;;;;;4960475;28;45397;-52
2023/02/19 05:54:39;;;;;;;;;1.00;1.00;;;;;;;;4960605;28;46718;-51
2023/02/19 05:57:05;;;;;;;;;2.00;1.00;;;;;;;;4960937;28;45428;-51
2023/02/19 05:59:30;;;;;;;;;1.00;1.00;;;;;;;;4960171;28;45494;-53
2023/02/19 06:01:57;;;;;;;;;1.00;1.00;;;;;;;;4964252;28;45356;-50
2023/02/19 06:04:22;;;;;;;;;1.00;1.00;;;;;;;;4960156;28;46462;-50
2023/02/19 06:06:47;;;;;;;;;2.00;1.00;;;;;;;;4960109;28;45454;-51
2023/02/19 06:09:13;;;;;;;;;1.50;0.50;;;;;;;;4963441;28;45461;-48
2023/02/19 06:11:38;;;;;;;;;3.00;1.00;;;;;;;;4959180;28;45835;-51
2023/02/19 06:14:04;;;;;;;;;1.00;1.00;;;;;;;;4960611;28;46644;-52
2023/02/19 06:16:31;;;;;;;;;1.33;1.33;;;;;;;;4975611;28;45458;-50
2023/02/19 06:18:56;;;;;;;;;1.00;1.00;;;;;;;;4966583;28;45599;-52
2023/02/19 06:21:21;;;;;;;;;2.00;2.00;;;;;;;;4964777;28;45557;-53
2023/02/19 06:23:46;;;;;;;;;3.00;3.00;;;;;;;;4964354;28;46752;-54
2023/02/19 06:26:14;;;;;;;;;1.00;1.00;;;;;;;;4963303;28;45644;-58
2023/02/19 06:28:40;;;;;;;;;5.67;2.00;;;;;;;;4980615;28;45692;-51
2023/02/19 06:31:06;;;;;;;;;2.33;1.00;;;;;;;;4972969;28;45510;-54
2023/02/19 06:33:32;;;;;;;;;3.00;2.00;;;;;;;;4960117;28;45725;-54
2023/02/19 06:35:58;;;;;;;;;1.67;1.67;;;;;;;;4961323;28;45605;-53
2023/02/19 06:38:24;;;;;;;;;8.00;5.33;;;;;;;;4970516;28;45385;-52
2023/02/19 06:40:49;;;;;;;;;6.67;2.00;;;;;;;;4974901;28;45784;-51
2023/02/19 06:43:15;;;;;;;;;1.33;1.33;;;;;;;;4961312;28;47025;-53
2023/02/19 06:45:40;;;;;;;;;2.33;2.00;;;;;;;;4964993;28;45378;-53
2023/02/19 06:48:05;;;;;;;;;2.00;1.67;;;;;;;;4957719;28;45748;-52
2023/02/19 06:50:31;;;;;;;;;0.00;0.00;;;;;;;;4959188;28;45458;-52
2023/02/19 06:52:56;;;;;;;;;4.00;3.00;;;;;;;;4960308;28;45466;-53
2023/02/19 06:55:21;;;;;;;;;0.00;0.00;;;;;;;;4959525;28;45531;-52
2023/02/19 06:57:47;;;;;;;;;3.00;2.00;;;;;;;;4955265;28;45534;-51
2023/02/19 07:00:12;;;;;;;;;3.67;3.00;;;;;;;;4958619;28;45484;-52
2023/02/19 07:02:37;;;;;;;;;4.00;2.00;;;;;;;;4959627;28;46167;-51
2023/02/19 07:05:03;;;;;;;;;3.00;3.00;;;;;;;;4959983;28;45357;-50
2023/02/19 07:07:28;;;;;;;;;2.67;2.00;;;;;;;;4961440;28;45368;-51
2023/02/19 07:09:53;;;;;;;;;2.67;1.33;;;;;;;;4962288;28;45565;-51
2023/02/19 07:12:18;;;;;;;;;3.00;2.00;;;;;;;;4958879;28;45674;-52
2023/02/19 07:14:43;;;;;;;;;3.33;3.33;;;;;;;;4958305;28;45467;-52
2023/02/19 07:17:08;;;;;;;;;5.33;2.00;;;;;;;;4959439;28;45412;-52
2023/02/19 07:19:34;;;;;;;;;4.00;3.00;;;;;;;;4958724;28;45715;-51
2023/02/19 07:21:59;;;;;;;;;4.33;3.00;;;;;;;;4959368;28;45919;-51
2023/02/19 07:24:24;;;;;;;;;4.33;4.33;;;;;;;;4959424;28;45538;-54
2023/02/19 07:26:49;;;;;;;;;5.00;5.00;;;;;;;;4960759;28;45515;-54
2023/02/19 07:29:14;;;;;;;;;3.00;3.00;;;;;;;;4951175;28;46755;-54
2023/02/19 07:31:40;;;;;;;;;6.00;4.33;;;;;;;;4958526;28;45678;-53
2023/02/19 07:34:06;;;;;;;;;5.67;3.67;;;;;;;;4958710;28;45512;-52
2023/02/19 07:36:31;;;;;;;;;3.67;3.67;;;;;;;;4959600;28;45508;-52
2023/02/19 07:38:57;;;;;;;;;4.00;4.00;;;;;;;;4956566;28;46424;-51
2023/02/19 07:41:23;;;;;;;;;4.67;4.00;;;;;;;;4956704;28;46162;-53
2023/02/19 07:43:48;;;;;;;;;4.33;4.33;;;;;;;;4957647;28;45568;-53
2023/02/19 07:46:13;;;;;;;;;6.33;4.00;;;;;;;;4962851;28;45501;-54
2023/02/19 07:48:39;;;;;;;;;4.67;3.00;;;;;;;;4956223;28;45855;-52
2023/02/19 07:51:06;;;;;;;;;4.33;3.00;;;;;;;;4959111;28;45641;-55
2023/02/19 07:53:32;;;;;;;;;5.00;5.00;;;;;;;;4955503;28;45495;-54
2023/02/19 07:55:58;;;;;;;;;7.33;2.67;;;;;;;;4962220;28;45235;-51
2023/02/19 07:58:23;;;;;;;;;5.67;3.67;;;;;;;;4960604;28;45354;-47
2023/02/19 08:00:48;;;;;;;;;3.00;2.00;;;;;;;;4956901;28;45666;-48
2023/02/19 08:03:13;;;;;;;;;2.67;2.67;;;;;;;;4956611;28;45406;-52
2023/02/19 08:05:40;;;;;;;;;4.00;3.00;;;;;;;;4958866;28;45334;-52
2023/02/19 08:08:06;;;;;;;;;3.00;1.00;;;;;;;;4956976;28;45399;-53
2023/02/19 08:13:19;;;;;;;;;4.00;1.00;;;;;;;;4961991;28;45582;-55
2023/02/19 08:16:16;;;;;;;;;5.00;4.00;;;;;;;;4961676;28;45565;-56
2023/02/19 08:18:41;;;;;;;;;4.00;4.00;;;;;;;;4966772;28;46060;-55
2023/02/19 08:21:07;;;;;;;;;6.33;4.33;;;;;;;;4963492;28;46293;-55
2023/02/19 08:23:32;;;;;;;;;6.33;4.67;;;;;;;;4963955;28;45320;-56
2023/02/19 08:25:58;;;;;;;;;7.50;6.00;;;;;;;;4963359;28;45538;-55
2023/02/19 08:28:23;;;;;;;;;7.67;4.00;;;;;;;;4963125;28;45392;-50
2023/02/19 08:30:49;;;;;;;;;4.33;3.00;;;;;;;;4963208;28;45580;-49
2023/02/19 08:33:15;;;;;;;;;4.00;4.00;;;;;;;;4963431;28;45202;-50
2023/02/19 08:35:41;;;;;;;;;3.00;3.00;;;;;;;;4964168;28;45360;-49
2023/02/19 08:38:07;;;;;;;;;6.33;4.00;;;;;;;;4963358;28;45392;-50
2023/02/19 08:40:32;;;;;;;;;2.67;2.33;;;;;;;;4963794;28;46107;-53
2023/02/19 08:43:05;;;;;;;;;4.33;3.00;;;;;;;;4962634;28;45328;-50
2023/02/19 08:45:31;;;;;;;;;9.67;3.00;;;;;;;;4963748;28;45369;-52
2023/02/19 08:47:56;;;;;;;;;3.00;3.00;;;;;;;;4963880;28;45502;-49
2023/02/19 08:50:21;;;;;;;;;1.67;1.67;;;;;;;;4963748;28;46288;-49
2023/02/19 08:52:47;;;;;;;;;3.00;3.00;;;;;;;;4962706;28;45510;-50
2023/02/19 08:55:12;;;;;;;;;2.67;2.67;;;;;;;;4963655;28;45395;-54
2023/02/19 08:57:37;;;;;;;;;4.00;3.67;;;;;;;;4963717;28;45499;-55
2023/02/19 09:00:03;;;;;;;;;5.67;2.33;;;;;;;;4963538;28;46341;-53
2023/02/19 09:02:29;;;;;;;;;4.00;2.67;;;;;;;;4962570;28;45659;-52
2023/02/19 09:04:54;;;;;;;;;2.00;2.00;;;;;;;;4963698;28;45491;-50
2023/02/19 09:07:19;;;;;;;;;1.67;1.33;;;;;;;;4962879;28;45399;-50
2023/02/19 09:09:44;;;;;;;;;2.67;1.67;;;;;;;;4962383;28;47211;-49
2023/02/19 09:12:11;;;;;;;;;4.00;2.33;;;;;;;;4961669;28;45370;-51
2023/02/19 09:14:36;;;;;;;;;4.00;4.00;;;;;;;;4963821;28;45357;-54
2023/02/19 09:17:02;;;;;;;;;2.67;1.00;;;;;;;;4963486;28;45218;-54
2023/02/19 09:19:28;;;;;;;;;1.67;1.67;;;;;;;;4963285;28;46026;-51
2023/02/19 09:21:53;;;;;;;;;2.67;2.67;;;;;;;;4961834;28;45371;-52
2023/02/19 09:24:19;;;;;;;;;2.00;1.00;;;;;;;;4963321;28;45342;-48
2023/02/19 09:26:47;;;;;;;;;6.00;3.00;;;;;;;;4963068;28;45583;-52
2023/02/19 09:29:13;;;;;;;;;0.00;0.00;;;;;;;;4963208;28;45417;-52
2023/02/19 09:31:38;;;;;;;;;1.67;1.67;;;;;;;;4960668;28;45389;-52
2023/02/19 09:34:04;;;;;;;;;3.00;3.00;;;;;;;;4963016;28;45504;-51
2023/02/19 09:36:31;;;;;;;;;2.00;2.00;;;;;;;;4963224;28;45615;-52
2023/02/19 09:38:56;;;;;;;;;5.33;3.00;;;;;;;;4962143;28;48029;-52
2023/02/19 09:41:21;;;;;;;;;5.67;4.00;;;;;;;;4976817;28;45427;-53
2023/02/19 09:43:46;;;;;;;;;8.00;6.67;;;;;;;;4961526;28;45333;-53
2023/02/19 09:46:20;;;;;;;;;5.67;4.33;;;;;;;;4962888;28;45516;-52
2023/02/19 09:48:46;;;;;;;;;5.67;5.67;;;;;;;;4962796;28;46190;-53
2023/02/19 09:51:12;;;;;;;;;3.33;3.00;;;;;;;;4962409;28;45361;-54
2023/02/19 09:53:42;;;;;;;;;4.33;2.00;;;;;;;;4962216;28;45444;-52
2023/02/19 09:56:07;;;;;;;;;2.67;1.67;;;;;;;;4963740;28;45393;-53
2023/02/19 09:58:34;;;;;;;;;5.33;3.67;;;;;;;;4970238;28;46979;-54
2023/02/19 10:01:00;;;;;;;;;4.00;2.00;;;;;;;;4971731;28;45418;-52
2023/02/19 10:03:29;;;;;;;;;7.00;4.00;;;;;;;;4962261;28;45423;-55
2023/02/19 10:05:55;;;;;;;;;4.00;2.00;;;;;;;;4963481;28;45437;-58
2023/02/19 10:08:21;;;;;;;;;5.67;4.00;;;;;;;;4963213;28;46043;-54
2023/02/19 10:10:46;;;;;;;;;5.00;2.67;;;;;;;;4978949;28;45365;-53
2023/02/19 10:13:20;;;;;;;;;6.00;5.00;;;;;;;;4978583;28;45626;-51
2023/02/19 10:15:51;;;;;;;;;3.00;3.00;;;;;;;;4961316;28;45677;-53
2023/02/19 10:18:18;;;;;;;;;2.33;1.67;;;;;;;;4961794;28;45441;-52
2023/02/19 10:20:43;;;;;;;;;3.67;2.67;;;;;;;;4962292;28;45431;-50
2023/02/19 10:23:10;;;;;;;;;10.00;2.67;;;;;;;;4962431;28;45516;-53
2023/02/19 10:25:39;;;;;;;;;1.67;1.67;;;;;;;;4962505;28;45419;-52
2023/02/19 10:28:10;;;;;;;;;3.67;2.67;;;;;;;;4962165;28;45331;-53
2023/02/19 10:30:36;;;;;;;;;3.67;3.67;;;;;;;;4962193;28;45337;-52
2023/02/19 10:33:03;;;;;;;;;6.00;3.67;;;;;;;;4961464;28;45166;-53
2023/02/19 10:35:29;;;;;;;;;5.67;4.33;;;;;;;;4962194;28;45364;-55
2023/02/19 10:37:55;;;;;;;;;5.00;3.00;;;;;;;;4962034;28;46161;-51
2023/02/19 10:40:22;;;;;;;;;3.33;3.00;;;;;;;;4962549;28;45519;-53
2023/02/19 10:42:48;;;;;;;;;2.67;2.00;;;;;;;;4962262;28;45486;-54
2023/02/19 10:45:37;;;;;;;;;1.67;1.67;;;;;;;;4961785;28;45349;-52
2023/02/19 10:48:02;;;;;;;;;2.00;2.00;;;;;;;;4963800;28;46571;-53
2023/02/19 10:50:31;;;;;;;;;5.00;4.00;;;;;;;;4961824;28;45431;-53
2023/02/19 10:52:58;;;;;;;;;3.67;2.67;;;;;;;;4961840;28;45367;-54
2023/02/19 10:55:23;;;;;;;;;6.00;3.00;;;;;;;;4973073;28;45187;-53
2023/02/19 10:57:49;;;;;;;;;7.00;4.00;;;;;;;;4961445;28;46254;-50
2023/02/19 11:00:14;;;;;;;;;4.00;3.33;;;;;;;;4962191;28;45357;-51
2023/02/19 11:02:40;;;;;;;;;5.33;3.00;;;;;;;;4961843;28;45401;-51
2023/02/19 11:05:05;;;;;;;;;4.00;2.00;;;;;;;;4963797;28;45307;-52
2023/02/19 11:07:30;;;;;;;;;5.00;3.67;;;;;;;;4961874;28;46181;-51
2023/02/19 11:09:56;;;;;;;;;3.00;3.00;;;;;;;;4961666;28;45377;-52
2023/02/19 11:12:26;;;;;;;;;0.33;0.33;;;;;;;;4961286;28;45438;-53
2023/02/19 11:14:51;;;;;;;;;5.00;3.00;;;;;;;;4961722;28;45353;-52
2023/02/19 11:17:24;;;;;;;;;3.67;3.67;;;;;;;;4961428;28;45770;-52
2023/02/19 11:19:54;;;;;;;;;2.33;2.00;;;;;;;;4961046;28;45425;-53
2023/02/19 11:22:40;;;;;;;;;3.33;3.33;;;;;;;;4959297;28;45526;-53
2023/02/19 11:25:09;;;;;;;;;8.00;4.00;;;;;;;;4960077;28;45627;-53
2023/02/19 11:27:35;;;;;;;;;5.00;3.00;;;;;;;;4961076;28;46193;-53
2023/02/19 11:30:19;;;;;;;;;3.00;3.00;;;;;;;;4961909;28;45777;-53
2023/02/19 11:32:44;;;;;;;;;7.00;5.00;;;;;;;;4961259;28;45440;-50
2023/02/19 11:35:16;;;;;;;;;4.00;2.67;;;;;;;;4961602;28;45351;-50
2023/02/19 11:37:55;;;;;;;;;3.00;3.00;;;;;;;;4961323;28;45472;-51
2023/02/19 11:40:23;;;;;;;;;6.33;4.00;;;;;;;;4961442;28;45373;-52
2023/02/19 11:43:04;;;;;;;;;6.00;4.00;;;;;;;;4961545;28;45428;-53
2023/02/19 11:45:35;;;;;;;;;4.33;4.33;;;;;;;;4959792;28;45443;-53
2023/02/19 11:48:03;;;;;;;;;6.00;5.00;;;;;;;;4960956;28;46102;-52
2023/02/19 11:50:43;;;;;;;;;11.33;5.00;;;;;;;;4961432;28;45421;-52
2023/02/19 11:53:11;;;;;;;;;5.00;3.00;;;;;;;;4961172;28;45519;-52
2023/02/19 11:55:49;;;;;;;;;3.67;2.00;;;;;;;;4961373;28;45381;-52
2023/02/19 11:58:30;;;;;;;;;4.67;2.33;;;;;;;;4967310;28;47002;-53
2023/02/19 12:01:13;;;;;;;;;6.00;5.00;;;;;;;;4961081;28;46319;-53
2023/02/19 12:03:48;;;;;;;;;8.67;6.00;;;;;;;;4961018;28;45413;-53
2023/02/19 12:06:23;;;;;;;;;5.67;5.67;;;;;;;;4959374;28;45239;-53
2023/02/19 12:09:01;;;;;;;;;6.00;6.00;;;;;;;;4961576;28;45442;-52
2023/02/19 12:11:36;;;;;;;;;11.00;6.33;;;;;;;;4960586;28;45496;-52
2023/02/19 12:14:01;;;;;;;;;5.33;5.33;;;;;;;;4974289;28;45353;-52
2023/02/19 12:16:42;;;;;;;;;6.33;6.33;;;;;;;;4960614;28;45572;-53
2023/02/19 12:19:30;;;;;;;;;6.00;6.00;;;;;;;;4958754;28;46270;-52
2023/02/19 12:22:07;;;;;;;;;5.67;5.33;;;;;;;;4969928;28;45616;-52
2023/02/19 12:24:32;;;;;;;;;5.67;4.33;;;;;;;;4960920;28;45408;-52
2023/02/19 12:27:03;;;;;;;;;8.00;5.00;;;;;;;;4960725;28;45465;-53
2023/02/19 12:29:47;;;;;;;;;4.00;4.00;;;;;;;;4960785;28;46325;-53
2023/02/19 12:32:18;;;;;;;;;6.67;5.00;;;;;;;;4960507;28;45397;-54
2023/02/19 12:34:48;;;;;;;;;3.33;3.33;;;;;;;;4959538;28;45395;-51
2023/02/19 12:37:19;;;;;;;;;6.67;4.00;;;;;;;;4959952;28;45506;-50
2023/02/19 12:39:45;;;;;;;;;3.00;3.00;;;;;;;;4960171;28;45448;-51
2023/02/19 12:42:14;;;;;;;;;7.00;5.00;;;;;;;;4960249;28;45436;-56
2023/02/19 12:44:45;;;;;;;;;3.00;3.00;;;;;;;;4960567;28;45491;-51
2023/02/19 12:47:17;;;;;;;;;4.33;3.00;;;;;;;;4960515;28;45347;-51
2023/02/19 12:49:46;;;;;;;;;5.00;4.00;;;;;;;;4960263;28;46397;-51
2023/02/19 12:52:20;;;;;;;;;4.00;4.00;;;;;;;;4960204;28;45285;-53
2023/02/19 12:54:48;;;;;;;;;5.33;4.00;;;;;;;;4960555;28;45824;-53
2023/02/19 12:57:14;;;;;;;;;6.67;4.00;;;;;;;;4963330;28;45669;-51
2023/02/19 12:59:42;;;;;;;;;3.67;3.67;;;;;;;;4962252;28;47105;-52
2023/02/19 13:02:16;;;;;;;;;3.50;3.50;;;;;;;;4963748;28;45433;-52
2023/02/19 13:04:46;;;;;;;;;2.67;2.00;;;;;;;;4963377;28;45873;-52
2023/02/19 13:07:19;;;;;;;;;4.67;3.67;;;;;;;;4963651;28;45520;-52
2023/02/19 13:09:50;;;;;;;;;3.00;3.00;;;;;;;;4963338;28;45531;-52
2023/02/19 13:12:18;;;;;;;;;3.00;3.00;;;;;;;;4963477;28;45261;-52
2023/02/19 13:14:46;;;;;;;;;6.33;5.00;;;;;;;;4963419;28;45345;-52
2023/02/19 13:17:30;;;;;;;;;3.00;3.00;;;;;;;;4963527;28;45476;-52
2023/02/19 13:20:01;;;;;;;;;5.00;4.00;;;;;;;;4962471;28;46281;-53
2023/02/19 13:25:17;;;;;;;;;5.67;3.00;;;;;;;;4961006;28;45778;-53
2023/02/19 13:27:51;;;;;;;;;7.00;4.00;;;;;;;;4961109;28;45553;-49
2023/02/19 13:30:49;;;;;;;;;0.25;0.25;;;;;;;;4963010;28;46290;-52
2023/02/19 13:33:33;;;;;;;;;6.00;2.00;;;;;;;;4982912;28;45476;-54
2023/02/19 13:36:24;;;;;;;;;3.67;3.00;;;;;;;;4963203;28;45735;-53
2023/02/19 13:38:50;;;;;;;;;4.00;3.00;;;;;;;;4964776;28;45450;-52
2023/02/19 13:41:19;;;;;;;;;6.00;5.00;;;;;;;;4977880;28;45933;-51
2023/02/19 13:43:45;;;;;;;;;3.33;3.33;;;;;;;;4963180;28;45399;-53
2023/02/19 13:46:12;;;;;;;;;5.33;4.33;;;;;;;;4963124;28;45354;-51
2023/02/19 13:48:38;;;;;;;;;6.67;6.33;;;;;;;;4963024;28;45424;-53
2023/02/19 13:51:17;;;;;;;;;6.00;5.33;;;;;;;;4962640;28;46281;-53
2023/02/19 13:53:46;;;;;;;;;6.00;5.33;;;;;;;;4962749;28;45381;-54
2023/02/19 13:56:30;;;;;;;;;5.33;5.00;;;;;;;;4962832;28;45629;-53
2023/02/19 13:59:14;;;;;;;;;7.67;7.67;;;;;;;;4962723;28;45397;-53
2023/02/19 14:01:48;;;;;;;;;7.33;7.00;;;;;;;;4962621;28;45360;-53
2023/02/19 14:04:21;;;;;;;;;6.33;4.33;;;;;;;;4962948;28;45286;-50
2023/02/19 14:07:02;;;;;;;;;5.67;5.33;;;;;;;;4962056;28;45494;-54
2023/02/19 14:09:33;;;;;;;;;7.33;5.67;;;;;;;;4962498;28;45385;-50
2023/02/19 14:12:11;;;;;;;;;4.00;4.00;;;;;;;;4962254;28;46202;-49
2023/02/19 14:14:39;;;;;;;;;6.33;6.33;;;;;;;;4962415;28;45378;-52
2023/02/19 14:17:24;;;;;;;;;5.67;5.67;;;;;;;;4962475;28;45464;-53
2023/02/19 14:19:49;;;;;;;;;6.33;5.00;;;;;;;;4962317;28;45479;-53
2023/02/19 14:22:33;;;;;;;;;8.00;8.00;;;;;;;;4962184;28;47133;-52
2023/02/19 14:24:59;;;;;;;;;10.33;5.33;;;;;;;;4962312;28;45530;-52
2023/02/19 14:27:24;;;;;;;;;6.33;5.00;;;;;;;;4962186;28;45489;-51
2023/02/19 14:29:50;;;;;;;;;12.00;8.00;;;;;;;;4962333;28;45381;-53
2023/02/19 14:32:17;;;;;;;;;9.00;9.00;;;;;;;;4961878;28;45470;-53
2023/02/19 14:34:46;;;;;;;;;11.00;11.00;;;;;;;;4962271;28;45396;-53
2023/02/19 14:37:21;;;;;;;;;14.00;10.67;;;;;;;;4962417;28;45536;-53
2023/02/19 14:39:46;;;;;;;;;10.33;10.00;;;;;;;;4962290;28;45419;-52
2023/02/19 14:42:16;;;;;;;;;10.33;8.67;;;;;;;;4961838;28;46313;-52
2023/02/19 14:44:51;;;;;;;;;13.00;10.33;;;;;;;;4962066;28;45439;-53
2023/02/19 14:47:17;;;;;;;;;10.67;9.33;;;;;;;;4962012;28;45338;-52
2023/02/19 14:49:51;;;;;;;;;11.33;11.00;;;;;;;;4961792;28;45357;-50
2023/02/19 14:52:23;;;;;;;;;12.33;10.67;;;;;;;;4961849;28;46418;-52
2023/02/19 14:54:52;;;;;;;;;17.33;14.00;;;;;;;;4961682;28;45324;-51
2023/02/19 14:57:20;;;;;;;;;16.00;12.67;;;;;;;;4961603;28;45464;-53
2023/02/19 14:59:57;;;;;;;;;13.67;11.00;;;;;;;;4961751;28;45305;-52
2023/02/19 15:02:24;;;;;;;;;14.00;11.33;;;;;;;;4961527;28;46975;-51
2023/02/19 15:04:50;;;;;;;;;16.67;15.33;;;;;;;;4961201;28;45338;-50
2023/02/19 15:07:18;;;;;;;;;11.00;10.33;;;;;;;;4961893;28;45383;-49
2023/02/19 15:09:46;;;;;;;;;13.33;11.00;;;;;;;;4961692;28;45370;-53
2023/02/19 15:12:20;;;;;;;;;13.33;13.33;;;;;;;;4961305;28;45262;-50
2023/02/19 15:14:47;;;;;;;;;14.67;13.00;;;;;;;;4961441;28;45436;-52
2023/02/19 15:17:15;;;;;;;;;14.00;12.67;;;;;;;;4960306;28;45555;-49
2023/02/19 15:19:41;;;;;;;;;13.33;9.00;;;;;;;;4960266;28;45456;-52
2023/02/19 15:22:10;;;;;;;;;11.33;6.33;;;;;;;;4961358;28;45538;-51
2023/02/19 15:24:35;;;;;;;;;11.33;8.00;;;;;;;;4961371;28;45349;-53
2023/02/19 15:27:02;;;;;;;;;9.00;9.00;;;;;;;;4961275;28;45432;-53
2023/02/19 15:29:27;;;;;;;;;12.67;10.67;;;;;;;;4961348;28;45548;-52
2023/02/19 15:31:57;;;;;;;;;9.67;8.33;;;;;;;;4959617;28;45911;-52
2023/02/19 15:34:25;;;;;;;;;13.00;7.00;;;;;;;;4961245;28;45403;-52
2023/02/19 15:36:52;;;;;;;;;9.00;6.33;;;;;;;;4961266;28;45159;-52
2023/02/19 15:39:22;;;;;;;;;9.67;9.67;;;;;;;;4961565;28;45653;-54
2023/02/19 15:41:58;;;;;;;;;6.67;6.67;;;;;;;;4960843;28;46083;-50
2023/02/19 15:44:52;;;;;;;;;9.00;7.67;;;;;;;;4961201;28;45401;-53
2023/02/19 15:47:33;;;;;;;;;12.00;8.00;;;;;;;;4968906;28;45365;-53
2023/02/19 15:50:04;;;;;;;;;14.33;7.67;;;;;;;;4961060;28;45492;-53
2023/02/19 15:52:37;;;;;;;;;8.00;8.00;;;;;;;;4960694;28;46226;-50
2023/02/19 15:55:19;;;;;;;;;7.00;7.00;;;;;;;;4960958;28;46355;-52
2023/02/19 15:57:48;;;;;;;;;8.00;8.00;;;;;;;;4960530;28;45241;-54
2023/02/19 16:00:17;;;;;;;;;14.67;10.67;;;;;;;;4960968;28;45163;-53
2023/02/19 16:02:43;;;;;;;;;11.00;8.33;;;;;;;;4960679;28;46165;-49
2023/02/19 16:05:14;;;;;;;;;12.33;12.33;;;;;;;;4960661;28;45426;-51
2023/02/19 16:07:40;;;;;;;;;11.67;9.33;;;;;;;;4959662;28;45423;-53
2023/02/19 16:10:17;;;;;;;;;12.67;11.33;;;;;;;;4960892;28;45259;-53
2023/02/19 16:12:43;;;;;;;;;10.33;10.33;;;;;;;;4960301;28;45353;-51
2023/02/19 16:15:12;;;;;;;;;11.33;10.67;;;;;;;;4960714;28;45354;-52
2023/02/19 16:17:40;;;;;;;;;13.00;10.33;;;;;;;;4960850;28;45255;-53
2023/02/19 16:20:06;;;;;;;;;13.67;11.33;;;;;;;;4960796;28;45523;-50
2023/02/19 16:22:39;;;;;;;;;15.33;15.33;;;;;;;;4960559;28;45336;-52
2023/02/19 16:25:05;;;;;;;;;10.00;8.33;;;;;;;;4960638;28;45436;-52
2023/02/19 16:27:35;;;;;;;;;11.33;11.33;;;;;;;;4959136;28;45400;-52
2023/02/19 16:30:06;;;;;;;;;7.33;7.33;;;;;;;;4961448;28;45362;-50
2023/02/19 16:32:31;;;;;;;;;12.00;11.33;;;;;;;;4963680;28;45393;-52
2023/02/19 16:34:56;;;;;;;;;11.67;11.33;;;;;;;;4963778;28;45350;-50
2023/02/19 16:37:34;;;;;;;;;15.33;12.33;;;;;;;;4964084;28;45520;-54
2023/02/19 16:40:08;;;;;;;;;13.00;11.67;;;;;;;;4963951;28;45310;-52
2023/02/19 16:42:34;;;;;;;;;11.33;11.00;;;;;;;;4963377;28;46365;-53
2023/02/19 16:44:59;;;;;;;;;11.00;9.33;;;;;;;;4962370;28;45401;-51
2023/02/19 16:47:28;;;;;;;;;12.67;11.33;;;;;;;;4963846;28;45423;-51
2023/02/19 16:49:54;;;;;;;;;14.00;12.00;;;;;;;;4963778;28;45393;-51
2023/02/19 16:52:20;;;;;;;;;11.67;9.67;;;;;;;;4963417;28;47267;-51
2023/02/19 16:54:46;;;;;;;;;10.33;10.33;;;;;;;;4963460;28;45381;-53
2023/02/19 16:57:11;;;;;;;;;14.33;13.67;;;;;;;;4963660;28;45220;-49
2023/02/19 16:59:36;;;;;;;;;16.00;14.33;;;;;;;;4963658;28;45274;-53
2023/02/19 17:02:03;;;;;;;;;14.00;11.67;;;;;;;;4963511;28;45428;-53
2023/02/19 17:04:28;;;;;;;;;16.67;13.67;;;;;;;;4963112;28;45509;-51
2023/02/19 17:06:54;;;;;;;;;15.67;15.33;;;;;;;;4963642;28;45424;-53
2023/02/19 17:09:19;;;;;;;;;15.67;14.33;;;;;;;;4962198;28;45403;-53
2023/02/19 17:11:44;;;;;;;;;17.67;16.00;;;;;;;;4963112;28;45875;-52
2023/02/19 17:14:09;;;;;;;;;17.33;15.33;;;;;;;;4963276;28;45325;-52
2023/02/19 17:16:38;;;;;;;;;19.67;19.67;;;;;;;;4963649;28;45789;-53
2023/02/19 17:19:06;;;;;;;;;22.67;19.33;;;;;;;;4962179;28;45432;-53
2023/02/19 17:21:33;;;;;;;;;22.33;21.67;;;;;;;;4963018;28;47145;-54
2023/02/19 17:23:58;;;;;;;;;28.00;26.00;;;;;;;;4963002;28;45325;-53
2023/02/19 17:26:25;;;;;;;;;22.00;21.67;;;;;;;;4962978;28;45266;-54
2023/02/19 17:28:50;;;;;;;;;25.33;23.00;;;;;;;;4963038;28;45329;-51
2023/02/19 17:31:16;;;;;;;;;25.33;24.33;;;;;;;;4962667;28;45393;-52
2023/02/19 17:33:41;;;;;;;;;30.33;27.00;;;;;;;;4962894;28;45763;-52
2023/02/19 17:36:07;;;;;;;;;25.33;24.33;;;;;;;;4963230;28;45292;-52
2023/02/19 17:38:32;;;;;;;;;26.33;24.33;;;;;;;;4961763;28;45568;-53
2023/02/19 17:40:58;;;;;;;;;29.33;26.00;;;;;;;;4962273;28;45336;-52
2023/02/19 17:43:23;;;;;;;;;30.67;30.00;;;;;;;;4962379;28;45163;-52
2023/02/19 17:45:48;;;;;;;;;35.00;29.67;;;;;;;;4962969;28;45357;-52
2023/02/19 17:48:14;;;;;;;;;32.00;30.00;;;;;;;;4962665;28;45408;-53
2023/02/19 17:50:40;;;;;;;;;36.00;31.33;;;;;;;;4962796;28;45603;-51
2023/02/19 17:53:05;;;;;;;;;34.67;30.00;;;;;;;;4962534;28;45671;-52
2023/02/19 17:55:30;;;;;;;;;35.33;30.67;;;;;;;;4962780;28;45464;-53
2023/02/19 17:57:56;;;;;;;;;30.00;26.00;;;;;;;;4962794;28;45663;-52
2023/02/19 18:00:26;;;;;;;;;33.33;30.33;;;;;;;;4962725;28;45170;-52
2023/02/19 18:02:51;;;;;;;;;33.33;29.33;;;;;;;;4962704;28;45364;-54
2023/02/19 18:05:17;;;;;;;;;32.67;29.33;;;;;;;;4962989;28;45332;-52
2023/02/19 18:07:42;;;;;;;;;29.33;29.33;;;;;;;;4963088;28;45326;-52
2023/02/19 18:10:08;;;;;;;;;39.67;30.67;;;;;;;;4961515;28;46586;-52
2023/02/19 18:12:33;;;;;;;;;36.67;30.33;;;;;;;;4962696;28;45373;-52
2023/02/19 18:14:59;;;;;;;;;37.67;31.67;;;;;;;;4962660;28;45464;-52
2023/02/19 18:17:25;;;;;;;;;34.33;28.00;;;;;;;;4961697;28;45495;-52
2023/02/19 18:19:51;;;;;;;;;33.67;30.67;;;;;;;;4961436;28;45355;-52
2023/02/19 18:22:16;;;;;;;;;39.67;32.33;;;;;;;;4962795;28;45387;-52
2023/02/19 18:24:46;;;;;;;;;33.00;30.67;;;;;;;;4963444;28;45228;-53
2023/02/19 18:27:11;;;;;;;;;36.33;32.00;;;;;;;;4962553;28;45323;-53
2023/02/19 18:29:37;;;;;;;;;33.67;31.00;;;;;;;;4961452;28;47216;-52
2023/02/19 18:32:02;;;;;;;;;41.33;32.00;;;;;;;;4961276;28;45672;-53
2023/02/19 18:34:27;;;;;;;;;38.33;33.33;;;;;;;;4962790;28;45326;-53
2023/02/19 18:36:53;;;;;;;;;41.33;35.00;;;;;;;;4962595;28;45326;-52
2023/02/19 18:39:18;;;;;;;;;44.67;36.67;;;;;;;;4962538;28;45376;-54
2023/02/19 18:41:50;;;;;;;;;36.67;31.33;;;;;;;;4961400;28;45425;-52
2023/02/19 18:44:19;;;;;;;;;47.67;34.33;;;;;;;;4962271;28;45366;-53
2023/02/19 18:46:44;;;;;;;;;45.67;37.00;;;;;;;;4961973;28;45417;-53
2023/02/19 18:49:10;;;;;;;;;43.33;33.67;;;;;;;;4961814;28;46051;-52